Time;durP1;ratioP1;P1;durP2;ratioP2;P2;SDS_P1;SDS_P2;PMS_P1;PMS_P2;Temp;Humidity;BMP_temperature;BMP_pressure;BME280_temperature;BME280_humidity;BME280_pressure;Samples;Min_cycle;Max_cycle;Signal;HPM_P1;HPM_P2
2021/11/28 00:00:52;;;;;;;18.30;12.80;;;;;;;3.30;80.29;95936.87;107796;1275;59837;-69
2021/11/28 00:03:22;;;;;;;15.40;11.20;;;;;;;3.23;80.86;95930.48;107759;1276;59795;-69
2021/11/28 00:05:59;;;;;;;15.90;12.00;;;;;;;3.23;80.90;95925.42;108000;1272;70962;-70
2021/11/28 00:08:44;;;;;;;13.60;10.00;;;;;;;3.21;80.87;95924.20;107783;1275;68438;-69
2021/11/28 00:14:06;;;;;;;10.30;7.70;;;;;;;3.20;80.78;95923.45;107884;1272;59659;-70
2021/11/28 00:16:36;;;;;;;8.80;7.00;;;;;;;3.27;80.89;95923.31;107925;1274;59779;-70
2021/11/28 00:19:06;;;;;;;7.90;6.00;;;;;;;3.36;80.81;95919.05;107725;1276;71492;-70
2021/11/28 00:21:36;;;;;;;9.80;7.30;;;;;;;3.42;80.75;95923.29;107978;1272;68658;-68
2021/11/28 00:24:05;;;;;;;7.50;6.10;;;;;;;3.47;80.56;95918.46;107790;1275;69453;-68
2021/11/28 00:26:36;;;;;;;8.20;6.30;;;;;;;3.54;80.49;95916.11;107741;1274;59729;-70
2021/11/28 00:29:08;;;;;;;5.40;4.30;;;;;;;3.58;80.37;95915.81;107880;1274;59742;-68
2021/11/28 00:31:39;;;;;;;7.30;5.70;;;;;;;3.61;80.21;95913.23;107968;1275;70640;-68
2021/11/28 00:34:09;;;;;;;7.30;5.00;;;;;;;3.63;80.24;95911.55;107881;1273;68549;-68
2021/11/28 00:36:39;;;;;;;5.30;4.50;;;;;;;3.67;80.16;95909.25;107861;1275;69399;-69
2021/11/28 00:39:09;;;;;;;7.70;5.40;;;;;;;3.68;80.11;95905.34;107831;1275;59748;-70
2021/11/28 00:41:38;;;;;;;7.00;4.80;;;;;;;3.69;80.04;95908.38;107739;1274;59708;-69
2021/11/28 00:44:27;;;;;;;6.40;4.60;;;;;;;3.73;79.98;95912.72;107913;1274;71503;-69
2021/11/28 00:46:57;;;;;;;19.70;14.90;;;;;;;3.75;80.03;95916.39;107757;1275;67996;-68
2021/11/28 00:49:27;;;;;;;17.60;13.30;;;;;;;3.74;79.67;95913.54;107770;1275;68466;-69
2021/11/28 00:51:58;;;;;;;9.50;7.10;;;;;;;3.67;79.53;95908.34;107991;1270;59733;-68
2021/11/28 00:54:30;;;;;;;15.70;12.20;;;;;;;3.59;79.71;95908.20;107958;1272;59643;-68
2021/11/28 00:57:01;;;;;;;8.50;6.60;;;;;;;3.53;79.74;95906.36;107856;1275;71492;-68
2021/11/28 00:59:31;;;;;;;5.90;4.10;;;;;;;3.49;79.90;95903.57;107732;1276;68607;-69
2021/11/28 01:02:01;;;;;;;5.90;4.80;;;;;;;3.47;79.98;95898.33;107805;1276;68672;-68
2021/11/28 01:04:30;;;;;;;4.80;3.80;;;;;;;3.45;80.07;95897.08;107816;1274;59747;-68
2021/11/28 01:07:01;;;;;;;7.80;5.40;;;;;;;3.47;80.03;95895.21;107793;1273;59783;-69
2021/11/28 01:09:31;;;;;;;5.30;4.00;;;;;;;3.47;80.18;95891.59;107990;1272;71589;-69
2021/11/28 01:12:01;;;;;;;6.40;5.20;;;;;;;3.52;80.42;95898.88;107895;1274;67638;-69
2021/11/28 01:14:31;;;;;;;7.40;4.60;;;;;;;3.53;80.20;95890.50;107831;1272;69501;-69
2021/11/28 01:17:00;;;;;;;6.00;3.70;;;;;;;3.53;80.08;95886.73;107824;1274;59698;-69
2021/11/28 01:19:31;;;;;;;5.30;4.00;;;;;;;3.52;79.91;95883.39;108042;1271;59820;-68
2021/11/28 01:22:05;;;;;;;6.00;4.30;;;;;;;3.51;79.90;95880.01;108033;1272;71680;-68
2021/11/28 01:24:36;;;;;;;4.40;3.50;;;;;;;3.50;79.80;95875.20;108002;1272;67669;-68
2021/11/28 01:27:09;;;;;;;7.20;4.70;;;;;;;3.50;79.80;95869.66;108004;1272;69454;-68
2021/11/28 01:29:41;;;;;;;5.00;3.20;;;;;;;3.50;79.90;95866.07;107898;1275;59725;-68
2021/11/28 01:32:12;;;;;;;6.30;4.50;;;;;;;3.51;79.78;95858.11;107794;1275;59732;-68
2021/11/28 01:34:42;;;;;;;5.00;4.00;;;;;;;3.52;79.86;95849.60;108035;1272;71547;-69
2021/11/28 01:37:11;;;;;;;5.40;4.40;;;;;;;3.52;79.75;95849.23;107979;1272;68627;-68
2021/11/28 01:39:41;;;;;;;5.60;4.60;;;;;;;3.49;79.89;95840.13;107900;1275;68443;-69
2021/11/28 01:42:12;;;;;;;4.90;4.10;;;;;;;3.47;79.84;95833.91;107977;1269;59722;-68
2021/11/28 01:44:42;;;;;;;5.90;4.50;;;;;;;3.47;79.93;95836.17;108038;1272;59727;-69
2021/11/28 01:47:11;;;;;;;;;;;;;;;3.49;79.98;95831.91;107934;1275;70739;-69
2021/11/28 01:49:44;;;;;;;6.30;4.80;;;;;;;3.49;79.97;95830.83;108019;1272;68789;-69
2021/11/28 01:52:16;;;;;;;6.70;4.90;;;;;;;3.52;79.84;95827.20;108001;1272;68904;-69
2021/11/28 01:54:48;;;;;;;5.60;4.10;;;;;;;3.54;79.78;95828.23;107899;1272;59767;-69
2021/11/28 01:57:17;;;;;;;;;;;;;;;3.55;79.63;95826.63;107940;1272;59734;-69
2021/11/28 01:59:48;;;;;;;6.60;4.90;;;;;;;3.57;79.68;95823.73;108052;1272;71428;-70
2021/11/28 02:02:18;;;;;;;5.90;4.20;;;;;;;3.58;79.63;95822.10;108114;1272;68669;-69
2021/11/28 02:04:48;;;;;;;5.60;3.70;;;;;;;3.61;79.60;95819.72;107788;1275;69381;-69
2021/11/28 02:07:18;;;;;;;;;;;;;;;3.65;79.43;95822.69;108010;1272;60081;-69
2021/11/28 02:09:49;;;;;;;3.60;2.80;;;;;;;3.69;79.39;95822.74;108087;1272;59693;-68
2021/11/28 02:12:22;;;;;;;3.40;3.00;;;;;;;3.75;79.23;95825.90;108156;1272;70698;-69
2021/11/28 02:14:51;;;;;;;4.10;3.20;;;;;;;3.79;79.01;95822.91;108095;1272;66672;-69
2021/11/28 02:17:21;;;;;;;3.70;2.50;;;;;;;3.81;78.97;95824.48;107968;1272;68809;-68
2021/11/28 02:19:50;;;;;;;5.70;4.30;;;;;;;3.85;78.97;95827.12;108094;1272;59765;-68
2021/11/28 02:22:21;;;;;;;4.40;3.70;;;;;;;3.93;78.97;95822.59;107971;1272;59730;-69
2021/11/28 02:24:51;;;;;;;5.00;3.70;;;;;;;3.97;78.87;95819.75;107989;1272;71595;-69
2021/11/28 02:27:20;;;;;;;;;;;;;;;3.98;78.80;95812.23;107837;1272;68424;-68
2021/11/28 02:29:51;;;;;;;3.30;2.60;;;;;;;3.99;78.71;95801.51;108073;1272;67628;-69
2021/11/28 02:32:21;;;;;;;;;;;;;;;3.98;78.62;95797.58;107954;1274;59723;-68
2021/11/28 02:34:52;;;;;;;5.40;4.10;;;;;;;3.96;78.60;95797.34;108133;1272;59820;-69
2021/11/28 02:37:22;;;;;;;4.10;3.70;;;;;;;3.96;78.61;95791.14;107976;1275;72111;-69
2021/11/28 02:39:53;;;;;;;5.90;4.10;;;;;;;3.99;78.64;95788.39;108073;1272;68465;-68
2021/11/28 02:42:25;;;;;;;5.50;4.20;;;;;;;3.97;78.64;95785.38;108074;1272;69301;-69
2021/11/28 02:44:54;;;;;;;4.10;3.30;;;;;;;3.93;78.61;95779.14;107865;1275;59763;-69
2021/11/28 02:47:24;;;;;;;3.30;2.80;;;;;;;3.90;78.59;95777.32;107843;1272;59736;-69
2021/11/28 02:49:54;;;;;;;;;;;;;;;3.88;78.60;95773.98;108141;1272;70813;-68
2021/11/28 02:52:26;;;;;;;6.70;4.10;;;;;;;3.84;78.79;95780.84;108013;1273;67840;-69
2021/11/28 02:54:57;;;;;;;5.50;4.80;;;;;;;3.73;78.91;95770.58;108050;1272;68282;-69
2021/11/28 02:57:28;;;;;;;5.80;3.70;;;;;;;3.67;78.95;95767.61;107929;1275;59780;-69
2021/11/28 02:59:59;;;;;;;5.40;3.70;;;;;;;3.63;79.15;95765.80;107992;1275;59633;-69
2021/11/28 03:02:30;;;;;;;3.30;2.30;;;;;;;3.54;79.01;95759.54;108015;1275;71638;-69
2021/11/28 03:05:09;;;;;;;6.30;3.70;;;;;;;3.49;79.12;95755.76;108119;1272;68446;-69
2021/11/28 03:07:40;;;;;;;5.60;4.30;;;;;;;3.49;79.33;95757.86;107910;1275;69436;-69
2021/11/28 03:10:43;;;;;;;7.60;5.00;;;;;;;3.49;79.48;95760.96;108102;1272;59738;-69
2021/11/28 03:13:18;;;;;;;6.40;4.40;;;;;;;3.38;79.34;95756.39;108027;1272;59681;-69
2021/11/28 03:15:51;;;;;;;5.40;3.60;;;;;;;3.31;79.27;95757.41;108085;1272;70815;-70
2021/11/28 03:18:24;;;;;;;5.30;3.80;;;;;;;3.25;79.55;95770.05;107893;1272;68641;-69
2021/11/28 03:20:57;;;;;;;4.80;3.60;;;;;;;3.19;79.46;95767.36;107984;1271;69240;-68
2021/11/28 03:23:30;;;;;;;4.40;3.20;;;;;;;3.13;79.57;95766.58;108012;1275;59707;-69
2021/11/28 03:26:04;;;;;;;3.40;2.70;;;;;;;3.06;79.69;95759.14;108008;1271;59714;-69
2021/11/28 03:28:36;;;;;;;3.70;2.70;;;;;;;2.99;79.62;95755.80;108094;1274;71570;-69
2021/11/28 03:31:05;;;;;;;4.70;3.70;;;;;;;2.92;79.61;95746.84;108043;1272;68639;-69
2021/11/28 03:34:10;;;;;;;4.00;2.90;;;;;;;2.84;80.07;95743.31;107846;1272;68477;-69
2021/11/28 03:36:44;;;;;;;4.30;3.60;;;;;;;2.79;80.18;95733.25;107924;1275;59702;-69
2021/11/28 03:39:19;;;;;;;6.00;4.60;;;;;;;2.75;80.24;95731.27;108131;1272;59713;-68
2021/11/28 03:41:54;;;;;;;2.60;2.10;;;;;;;2.71;80.26;95734.30;108000;1275;71566;-69
2021/11/28 03:44:26;;;;;;;5.70;3.00;;;;;;;2.68;80.24;95732.51;108054;1272;68606;-69
2021/11/28 03:47:02;;;;;;;4.70;3.90;;;;;;;2.67;80.25;95732.73;107952;1271;67484;-69
2021/11/28 03:49:32;;;;;;;6.40;4.70;;;;;;;2.67;80.42;95730.27;107990;1272;59733;-69
2021/11/28 03:52:03;;;;;;;7.60;5.00;;;;;;;2.74;81.02;95721.60;108105;1272;59706;-69
2021/11/28 03:54:35;;;;;;;7.40;4.90;;;;;;;2.79;81.07;95730.02;107959;1275;70379;-69
2021/11/28 03:57:05;;;;;;;5.40;3.40;;;;;;;2.84;81.11;95737.42;107893;1274;67828;-69
2021/11/28 03:59:35;;;;;;;4.40;3.70;;;;;;;2.80;80.83;95739.52;107985;1272;68455;-68
2021/11/28 04:02:05;;;;;;;;;;;;;;;2.79;80.97;95741.35;107730;1272;59796;-68
2021/11/28 04:04:35;;;;;;;5.70;4.30;;;;;;;2.79;80.92;95741.00;108061;1271;59797;-68
2021/11/28 04:07:13;;;;;;;8.20;7.00;;;;;;;2.82;80.75;95743.90;108087;1272;71377;-69
2021/11/28 04:09:44;;;;;;;7.10;5.90;;;;;;;2.85;80.96;95740.24;107963;1274;67814;-69
2021/11/28 04:12:14;;;;;;;7.30;5.40;;;;;;;2.88;80.76;95745.72;108012;1275;68639;-69
2021/11/28 04:14:46;;;;;;;6.80;5.00;;;;;;;2.89;80.71;95757.71;107996;1272;59805;-68
2021/11/28 04:17:16;;;;;;;6.10;4.90;;;;;;;2.86;80.79;95763.78;107944;1275;60203;-69
2021/11/28 04:19:52;;;;;;;7.20;4.30;;;;;;;2.84;80.70;95761.15;107791;1275;71604;-69
2021/11/28 04:22:23;;;;;;;5.30;4.10;;;;;;;2.84;80.64;95763.91;107840;1272;68676;-69
2021/11/28 04:24:54;;;;;;;5.20;4.00;;;;;;;2.82;80.68;95761.09;107947;1275;69487;-69
2021/11/28 04:27:24;;;;;;;5.10;3.70;;;;;;;2.82;80.57;95760.59;107934;1275;59792;-69
2021/11/28 04:29:54;;;;;;;5.40;3.60;;;;;;;2.80;80.62;95757.30;107936;1272;59745;-69
2021/11/28 04:32:24;;;;;;;7.30;5.90;;;;;;;2.78;80.45;95763.98;107952;1272;70674;-69
2021/11/28 04:34:58;;;;;;;9.10;7.60;;;;;;;2.78;80.78;95769.33;108038;1272;69123;-68
2021/11/28 04:37:27;;;;;;;17.00;13.40;;;;;;;2.76;80.60;95780.10;107927;1274;68683;-69
2021/11/28 04:39:57;;;;;;;18.10;12.60;;;;;;;2.57;80.27;95787.07;107989;1275;59713;-68
2021/11/28 04:42:29;;;;;;;13.30;10.00;;;;;;;2.37;80.57;95784.94;108016;1274;60080;-69
2021/11/28 04:45:01;;;;;;;7.90;6.30;;;;;;;2.28;80.97;95779.34;108048;1272;70919;-69
2021/11/28 04:47:31;;;;;;;7.20;5.80;;;;;;;2.24;81.33;95781.30;107954;1274;68398;-69
2021/11/28 04:50:07;;;;;;;11.70;7.50;;;;;;;2.23;81.05;95780.91;108059;1274;69768;-68
2021/11/28 04:52:37;;;;;;;8.90;6.50;;;;;;;2.22;81.35;95781.31;108000;1274;59723;-69
2021/11/28 04:55:08;;;;;;;7.00;4.50;;;;;;;2.23;81.67;95778.61;108050;1271;59702;-69
2021/11/28 04:57:38;;;;;;;6.50;4.70;;;;;;;2.34;82.12;95782.57;108100;1269;71026;-69
2021/11/28 05:00:18;;;;;;;6.00;5.00;;;;;;;2.45;82.39;95786.63;108041;1272;67707;-68
2021/11/28 05:02:58;;;;;;;7.10;4.90;;;;;;;2.50;82.25;95784.92;108025;1274;68772;-69
2021/11/28 05:05:48;;;;;;;9.70;7.20;;;;;;;2.54;82.07;95777.43;108039;1271;59739;-69
2021/11/28 05:08:44;;;;;;;8.60;5.90;;;;;;;2.64;82.28;95776.61;107940;1275;59717;-69
2021/11/28 05:11:14;;;;;;;7.30;4.80;;;;;;;2.73;82.34;95780.84;108214;1272;71587;-69
2021/11/28 05:13:43;;;;;;;9.50;6.50;;;;;;;2.83;82.17;95771.88;107957;1273;68641;-69
2021/11/28 05:16:13;;;;;;;;;;;;;;;2.92;82.12;95777.61;107983;1274;69268;-66
2021/11/28 05:19:05;;;;;;;9.00;6.60;;;;;;;3.01;81.92;95772.16;107939;1272;59706;-68
2021/11/28 05:21:41;;;;;;;11.10;8.90;;;;;;;3.05;81.37;95773.48;108127;1272;59812;-68
2021/11/28 05:24:11;;;;;;;10.60;7.90;;;;;;;3.07;81.24;95774.03;108040;1272;71374;-69
2021/11/28 05:26:44;;;;;;;6.00;4.70;;;;;;;3.13;81.33;95775.70;107902;1272;67788;-70
2021/11/28 05:29:14;;;;;;;8.30;5.90;;;;;;;3.22;81.28;95780.71;107898;1274;68464;-69
2021/11/28 05:31:47;;;;;;;8.90;7.00;;;;;;;3.29;81.27;95786.40;107973;1272;59721;-69
2021/11/28 05:34:35;;;;;;;11.20;8.50;;;;;;;3.35;81.16;95781.42;108047;1272;59808;-70
2021/11/28 05:37:23;;;;;;;9.30;7.90;;;;;;;3.39;80.98;95776.98;108004;1272;71651;-68
2021/11/28 05:40:00;;;;;;;9.80;7.60;;;;;;;3.41;80.90;95781.98;107996;1270;67726;-69
2021/11/28 05:42:30;;;;;;;6.70;4.90;;;;;;;3.44;80.85;95777.51;108263;1272;69228;-68
2021/11/28 05:45:03;;;;;;;7.50;5.60;;;;;;;3.48;80.77;95775.47;107878;1273;59748;-69
2021/11/28 05:47:33;;;;;;;5.80;4.80;;;;;;;3.55;80.73;95777.52;108089;1271;59703;-68
2021/11/28 05:50:13;;;;;;;4.80;3.40;;;;;;;3.64;80.63;95780.02;107947;1271;71816;-68
2021/11/28 05:52:49;;;;;;;7.70;5.30;;;;;;;3.71;80.52;95782.63;107961;1272;67809;-68
2021/11/28 05:55:18;;;;;;;9.50;6.70;;;;;;;3.79;80.47;95781.85;107834;1272;68624;-69
2021/11/28 05:57:58;;;;;;;6.00;4.40;;;;;;;3.92;80.32;95774.21;108035;1271;59738;-69
2021/11/28 06:00:28;;;;;;;4.30;3.30;;;;;;;4.02;80.24;95776.92;107916;1274;59681;-69
2021/11/28 06:03:02;;;;;;;3.40;2.90;;;;;;;4.11;80.01;95775.44;108013;1272;71619;-68
2021/11/28 06:05:35;;;;;;;6.90;5.00;;;;;;;4.16;79.72;95778.02;108073;1272;68169;-68
2021/11/28 06:08:30;;;;;;;5.30;4.10;;;;;;;4.22;79.50;95780.35;107977;1272;68896;-68
2021/11/28 06:11:05;;;;;;;7.50;5.20;;;;;;;4.27;79.22;95776.01;108042;1271;59786;-69
2021/11/28 06:13:35;;;;;;;8.40;5.50;;;;;;;4.40;79.00;95772.83;107883;1274;59698;-68
2021/11/28 06:16:19;;;;;;;6.80;4.80;;;;;;;4.52;78.96;95780.87;107672;1271;553174;-68
2021/11/28 06:19:14;;;;;;;8.80;6.80;;;;;;;4.62;78.72;95781.13;108088;1272;68599;-68
2021/11/28 06:21:49;;;;;;;8.60;7.00;;;;;;;4.70;78.75;95786.09;107957;1275;68662;-68
2021/11/28 06:24:22;;;;;;;7.20;5.40;;;;;;;4.77;78.57;95793.65;108088;1271;59722;-69
2021/11/28 06:26:57;;;;;;;7.00;4.80;;;;;;;4.85;78.34;95794.23;107950;1275;59745;-68
2021/11/28 06:29:26;;;;;;;9.00;5.90;;;;;;;4.97;77.98;95800.11;108035;1272;70819;-69
2021/11/28 06:31:55;;;;;;;6.40;5.10;;;;;;;5.03;77.66;95801.86;108066;1271;68666;-69
2021/11/28 06:34:53;;;;;;;11.40;7.60;;;;;;;5.06;76.96;95802.30;107969;1274;69637;-69
2021/11/28 06:37:46;;;;;;;13.20;9.70;;;;;;;5.07;77.11;95805.04;108018;1272;59735;-69
2021/11/28 06:40:35;;;;;;;9.40;7.50;;;;;;;5.12;76.76;95796.70;108004;1272;59703;-69
2021/11/28 06:43:16;;;;;;;10.80;8.00;;;;;;;5.17;77.04;95801.16;108045;1272;71172;-68
2021/11/28 06:45:45;;;;;;;8.90;7.10;;;;;;;5.24;76.94;95804.21;107919;1271;69286;-68
2021/11/28 06:48:14;;;;;;;9.30;7.30;;;;;;;5.36;76.91;95811.63;107943;1270;69240;-68
2021/11/28 06:51:12;;;;;;;8.00;4.80;;;;;;;5.51;76.58;95812.13;107929;1272;59704;-69
2021/11/28 06:53:41;;;;;;;6.10;4.90;;;;;;;5.68;75.92;95811.86;107949;1275;59740;-69
2021/11/28 06:56:45;;;;;;;5.90;4.40;;;;;;;5.88;75.75;95813.95;107561;1277;70720;-69
2021/11/28 06:59:15;;;;;;;5.20;4.60;;;;;;;6.03;75.30;95807.73;107724;1271;69187;-69
2021/11/28 07:01:46;;;;;;;6.60;4.80;;;;;;;6.19;74.94;95802.67;108007;1275;68433;-68
2021/11/28 07:04:25;;;;;;;5.60;3.50;;;;;;;6.37;75.02;95808.68;107940;1275;59697;-69
2021/11/28 07:07:00;;;;;;;7.90;5.60;;;;;;;6.55;74.10;95800.36;107975;1272;59787;-68
2021/11/28 07:09:29;;;;;;;6.40;5.30;;;;;;;6.78;74.10;95798.71;108069;1271;70747;-73
2021/11/28 07:11:58;;;;;;;6.60;4.60;;;;;;;7.03;73.71;95795.59;107901;1272;68610;-73
2021/11/28 07:14:28;;;;;;;5.00;3.70;;;;;;;7.26;73.40;95793.64;108033;1272;68689;-72
2021/11/28 07:16:58;;;;;;;8.50;7.10;;;;;;;7.43;72.60;95793.88;107961;1272;59764;-71
2021/11/28 07:19:28;;;;;;;7.90;5.10;;;;;;;7.85;72.05;95790.41;107869;1275;59748;-73
2021/11/28 07:22:03;;;;;;;7.30;5.20;;;;;;;8.50;71.25;95785.50;108023;1271;71654;-74
2021/11/28 07:24:32;;;;;;;7.80;6.30;;;;;;;9.43;69.19;95784.77;107969;1275;68450;-72
2021/11/28 07:27:01;;;;;;;8.00;6.30;;;;;;;9.92;64.21;95782.42;108050;1272;69174;-70
2021/11/28 07:29:30;;;;;;;7.00;5.10;;;;;;;10.02;63.80;95785.95;107872;1275;60143;-75
2021/11/28 07:31:59;;;;;;;7.20;5.10;;;;;;;10.06;62.90;95791.38;108076;1272;59712;-71
2021/11/28 07:34:46;;;;;;;8.00;6.10;;;;;;;10.06;62.32;95790.96;108123;1271;71547;-73
2021/11/28 07:37:35;;;;;;;5.20;4.60;;;;;;;10.08;63.39;95793.03;108020;1272;68704;-74
2021/11/28 07:40:05;;;;;;;4.90;4.00;;;;;;;10.12;62.80;95791.39;108003;1273;69246;-72
2021/11/28 07:42:36;;;;;;;6.70;5.60;;;;;;;10.19;63.76;95796.68;108000;1272;59736;-70
2021/11/28 07:45:23;;;;;;;7.00;5.70;;;;;;;10.28;65.01;95798.79;108029;1272;59713;-67
2021/11/28 07:48:22;;;;;;;9.60;7.70;;;;;;;10.38;65.56;95796.46;108054;1272;71794;-76
2021/11/28 07:51:17;;;;;;;8.20;6.60;;;;;;;10.46;65.55;95796.30;108007;1275;68589;-69
2021/11/28 07:53:47;;;;;;;6.50;5.10;;;;;;;10.53;65.28;95797.94;107858;1274;69547;-72
2021/11/28 07:56:19;;;;;;;7.60;5.60;;;;;;;10.64;65.39;95797.54;107891;1274;59831;-71
2021/11/28 07:59:07;;;;;;;6.60;5.70;;;;;;;10.77;65.30;95790.55;108069;1271;59757;-74
2021/11/28 08:01:37;;;;;;;10.10;7.50;;;;;;;10.80;64.78;95795.86;108095;1271;71733;-73
2021/11/28 08:04:25;;;;;;;5.30;4.40;;;;;;;10.76;63.73;95799.65;108095;1271;68833;-68
2021/11/28 08:07:12;;;;;;;8.60;7.30;;;;;;;10.74;64.68;95800.59;108186;1272;68477;-69
2021/11/28 08:10:11;;;;;;;9.30;7.50;;;;;;;10.66;63.59;95797.15;108125;1274;59844;-69
2021/11/28 08:12:40;;;;;;;11.60;8.90;;;;;;;10.59;64.02;95800.60;107981;1271;59786;-70
2021/11/28 08:15:10;;;;;;;9.20;7.70;;;;;;;10.53;63.73;95809.11;108130;1272;71685;-73
2021/11/28 08:17:39;;;;;;;;;;;;;;;10.48;64.04;95807.11;108143;1271;68984;-68
2021/11/28 08:20:10;;;;;;;11.30;8.70;;;;;;;10.45;64.04;95802.92;108090;1272;69225;-68
2021/11/28 08:22:39;;;;;;;9.30;7.10;;;;;;;10.42;63.81;95810.29;108015;1271;59709;-72
2021/11/28 08:25:10;;;;;;;8.40;6.00;;;;;;;10.40;63.08;95810.14;108086;1274;59640;-72
2021/11/28 08:27:40;;;;;;;10.00;7.00;;;;;;;10.42;63.36;95812.77;108130;1271;71727;-74
2021/11/28 08:30:13;;;;;;;6.80;5.20;;;;;;;10.48;63.23;95813.38;108080;1272;68505;-69
2021/11/28 08:33:00;;;;;;;8.60;7.00;;;;;;;10.59;62.89;95816.14;108113;1272;69550;-75
2021/11/28 08:35:48;;;;;;;7.90;7.10;;;;;;;10.67;62.56;95823.36;108077;1272;59769;-73
2021/11/28 08:38:16;;;;;;;9.00;6.80;;;;;;;10.70;63.24;95821.95;107980;1275;59656;-73
2021/11/28 08:40:46;;;;;;;7.90;5.40;;;;;;;10.72;61.54;95822.39;108105;1272;70904;-75
2021/11/28 08:43:14;;;;;;;11.50;8.90;;;;;;;10.67;61.05;95822.97;107888;1274;68817;-69
2021/11/28 08:45:43;;;;;;;8.20;6.40;;;;;;;10.59;61.55;95822.92;107998;1272;69212;-68
2021/11/28 08:48:13;;;;;;;9.70;7.60;;;;;;;10.54;61.60;95819.05;108102;1271;59675;-67
2021/11/28 08:50:42;;;;;;;9.00;6.10;;;;;;;10.50;61.76;95814.98;107975;1275;59729;-71
2021/11/28 08:53:11;;;;;;;6.70;5.20;;;;;;;10.51;61.73;95810.52;108065;1272;71377;-68
2021/11/28 08:55:42;;;;;;;5.90;5.30;;;;;;;10.56;61.78;95811.41;108045;1273;68021;-69
2021/11/28 08:58:11;;;;;;;6.40;4.50;;;;;;;10.64;62.29;95809.06;108054;1272;69340;-68
2021/11/28 09:00:40;;;;;;;6.10;4.50;;;;;;;10.76;62.18;95808.34;107996;1272;59764;-72
2021/11/28 09:03:09;;;;;;;6.00;4.50;;;;;;;10.91;60.43;95804.98;108084;1272;59735;-72
2021/11/28 09:05:38;;;;;;;5.30;4.10;;;;;;;10.98;59.77;95802.16;107916;1275;72114;-75
2021/11/28 09:08:07;;;;;;;6.30;4.20;;;;;;;11.04;59.53;95800.34;108088;1275;67728;-68
2021/11/28 09:10:41;;;;;;;7.40;5.40;;;;;;;11.15;59.89;95795.06;107973;1275;69570;-69
2021/11/28 09:13:11;;;;;;;7.40;4.90;;;;;;;11.34;59.44;95794.09;107923;1272;59771;-67
2021/11/28 09:15:43;;;;;;;5.20;3.70;;;;;;;11.52;59.46;95796.70;108113;1271;59749;-68
2021/11/28 09:18:37;;;;;;;6.20;4.60;;;;;;;11.70;58.74;95792.65;108029;1272;71406;-67
2021/11/28 09:21:06;;;;;;;6.30;5.30;;;;;;;11.76;56.77;95786.66;107957;1273;68413;-67
2021/11/28 09:26:23;;;;;;;4.50;3.40;;;;;;;11.72;57.54;95778.77;107996;1272;59705;-67
2021/11/28 09:28:52;;;;;;;5.70;4.90;;;;;;;11.71;58.08;95775.61;108001;1271;59733;-69
2021/11/28 09:31:21;;;;;;;6.20;4.40;;;;;;;11.72;57.92;95772.17;107853;1275;71974;-72
2021/11/28 09:33:50;;;;;;;5.90;4.30;;;;;;;11.70;57.46;95773.21;107937;1275;68545;-68
2021/11/28 09:36:19;;;;;;;6.00;4.60;;;;;;;11.73;58.23;95763.87;108019;1272;68449;-72
2021/11/28 09:38:47;;;;;;;5.00;4.20;;;;;;;11.80;58.46;95757.58;108055;1271;59640;-74
2021/11/28 09:41:17;;;;;;;7.00;4.70;;;;;;;11.89;58.37;95759.13;107988;1274;59761;-71
2021/11/28 09:43:54;;;;;;;6.40;4.30;;;;;;;12.01;58.56;95761.33;108006;1272;70784;-75
2021/11/28 09:46:25;;;;;;;5.60;3.70;;;;;;;12.37;58.61;95757.64;107957;1272;68418;-76
2021/11/28 09:48:59;;;;;;;4.90;3.20;;;;;;;12.79;58.37;95747.58;108016;1275;68935;-70
2021/11/28 09:51:29;;;;;;;4.40;3.50;;;;;;;13.22;56.46;95739.81;107926;1274;59857;-69
2021/11/28 09:54:00;;;;;;;4.30;3.40;;;;;;;13.70;53.82;95731.15;107656;1277;59689;-68
2021/11/28 09:56:34;;;;;;;5.30;4.80;;;;;;;15.15;51.78;95721.44;107849;1274;72120;-68
2021/11/28 09:59:05;;;;;;;5.60;4.10;;;;;;;16.71;49.09;95717.32;107860;1272;67825;-69
2021/11/28 10:01:36;;;;;;;5.80;3.70;;;;;;;18.05;44.46;95717.39;107939;1274;69313;-68
2021/11/28 10:04:05;;;;;;;5.60;4.90;;;;;;;19.30;43.14;95714.34;107983;1275;59745;-70
2021/11/28 10:06:35;;;;;;;6.70;3.90;;;;;;;20.09;42.01;95720.36;108068;1271;59712;-70
2021/11/28 10:09:08;;;;;;;4.00;3.50;;;;;;;19.91;39.71;95725.48;107966;1274;71682;-69
2021/11/28 10:11:39;;;;;;;3.60;2.80;;;;;;;20.00;38.94;95725.39;108068;1272;68617;-72
2021/11/28 10:14:12;;;;;;;3.20;2.70;;;;;;;20.31;39.07;95719.59;108048;1272;67876;-68
2021/11/28 10:16:42;;;;;;;4.00;3.10;;;;;;;20.20;38.75;95721.86;108025;1275;59645;-70
2021/11/28 10:19:11;;;;;;;4.70;3.30;;;;;;;20.20;38.38;95719.58;108009;1272;59672;-72
2021/11/28 10:21:39;;;;;;;3.50;2.80;;;;;;;19.76;37.48;95713.30;107943;1275;72254;-67
2021/11/28 10:24:17;;;;;;;4.10;3.20;;;;;;;18.87;38.94;95709.05;108028;1271;69209;-69
2021/11/28 10:27:08;;;;;;;3.50;2.90;;;;;;;18.45;40.09;95709.90;108086;1271;68701;-70
2021/11/28 10:29:40;;;;;;;3.60;2.60;;;;;;;18.28;40.40;95699.41;108161;1274;59729;-76
2021/11/28 10:32:12;;;;;;;3.30;3.00;;;;;;;18.22;40.51;95698.48;108038;1272;59722;-66
2021/11/28 10:34:44;;;;;;;4.50;2.80;;;;;;;18.06;40.16;95698.31;108063;1272;72169;-66
2021/11/28 10:37:16;;;;;;;3.30;2.50;;;;;;;17.96;40.29;95688.73;108073;1272;68629;-69
2021/11/28 10:39:57;;;;;;;4.40;3.50;;;;;;;18.25;40.53;95683.34;108069;1272;68427;-69
2021/11/28 10:42:35;;;;;;;5.10;3.40;;;;;;;19.21;39.06;95682.32;107957;1274;59747;-71
2021/11/28 10:45:17;;;;;;;4.30;3.30;;;;;;;19.94;38.03;95683.23;107824;1277;59783;-66
2021/11/28 10:47:50;;;;;;;3.80;2.90;;;;;;;19.84;37.47;95681.85;107794;1271;71643;-67
2021/11/28 10:50:28;;;;;;;5.40;3.70;;;;;;;19.28;36.96;95686.67;108006;1274;69031;-66
2021/11/28 10:53:19;;;;;;;5.30;3.40;;;;;;;18.70;38.58;95686.52;108121;1272;70043;-66
2021/11/28 10:56:01;;;;;;;5.80;3.30;;;;;;;18.34;39.66;95681.08;107960;1275;59756;-71
2021/11/28 10:58:31;;;;;;;3.60;3.20;;;;;;;18.11;40.67;95684.77;107986;1273;59768;-74
2021/11/28 11:01:07;;;;;;;3.80;3.00;;;;;;;17.86;41.40;95691.18;107917;1276;70835;-67
2021/11/28 11:03:51;;;;;;;8.40;5.10;;;;;;;17.61;41.17;95697.02;108046;1271;68594;-68
2021/11/28 11:06:26;;;;;;;3.70;3.00;;;;;;;17.40;41.87;95694.53;108054;1272;68597;-73
2021/11/28 11:09:24;;;;;;;4.20;3.40;;;;;;;17.46;41.79;95688.23;107903;1275;59792;-67
2021/11/28 11:11:54;;;;;;;5.00;3.40;;;;;;;18.17;42.29;95686.16;108045;1272;59771;-71
2021/11/28 11:14:24;;;;;;;3.00;2.40;;;;;;;19.54;40.51;95687.40;108079;1272;72205;-69
2021/11/28 11:17:02;;;;;;;4.40;2.70;;;;;;;20.92;37.61;95683.64;108173;1272;67968;-70
2021/11/28 11:19:36;;;;;;;3.20;2.00;;;;;;;22.20;34.17;95679.19;108107;1271;68989;-73
2021/11/28 11:22:12;;;;;;;3.90;2.30;;;;;;;23.39;33.87;95674.27;108025;1272;59738;-73
2021/11/28 11:24:46;;;;;;;2.90;1.80;;;;;;;24.44;32.96;95679.46;107892;1274;59650;-76
2021/11/28 11:27:22;;;;;;;2.50;1.90;;;;;;;25.39;31.25;95678.09;108154;1273;70778;-71
2021/11/28 11:29:54;;;;;;;2.60;2.10;;;;;;;26.13;29.16;95682.41;107984;1272;68616;-67
2021/11/28 11:32:38;;;;;;;2.70;1.90;;;;;;;26.63;27.46;95686.90;108020;1272;69527;-69
2021/11/28 11:35:09;;;;;;;2.40;1.90;;;;;;;26.98;26.32;95676.58;108104;1271;59748;-70
2021/11/28 11:37:38;;;;;;;3.80;2.10;;;;;;;27.29;25.76;95674.20;108149;1272;59720;-70
2021/11/28 11:40:10;;;;;;;2.90;2.20;;;;;;;27.57;26.19;95670.37;108141;1272;71612;-68
2021/11/28 11:42:41;;;;;;;3.60;2.30;;;;;;;27.36;24.39;95658.40;107972;1272;68646;-65
2021/11/28 11:45:14;;;;;;;2.90;2.10;;;;;;;27.24;25.29;95655.55;107956;1275;68747;-71
2021/11/28 11:47:44;;;;;;;2.40;1.90;;;;;;;27.30;24.60;95649.85;108057;1272;59761;-68
2021/11/28 11:50:22;;;;;;;2.80;2.10;;;;;;;27.24;24.92;95649.64;108077;1272;59776;-71
2021/11/28 11:53:04;;;;;;;2.60;1.80;;;;;;;26.90;24.48;95650.24;108185;1272;71580;-66
2021/11/28 11:55:40;;;;;;;2.80;1.70;;;;;;;26.50;24.74;95654.89;107990;1275;67652;-71
2021/11/28 11:58:45;;;;;;;2.40;1.70;;;;;;;25.92;25.16;95658.89;108101;1274;68550;-67
2021/11/28 12:01:27;;;;;;;2.40;1.40;;;;;;;25.36;25.95;95661.65;108096;1272;59783;-72
2021/11/28 12:03:57;;;;;;;2.70;1.90;;;;;;;25.28;26.12;95657.16;108022;1272;59655;-69
2021/11/28 12:06:41;;;;;;;3.70;2.30;;;;;;;25.17;25.86;95652.95;108169;1272;72017;-69
2021/11/28 12:09:24;;;;;;;2.70;1.70;;;;;;;24.74;26.18;95641.89;108140;1272;68775;-70